Terminal Aerodrome Forecast
Issued by NWS Topeka, KS

Home | Current Version | Previous Version | Graphics & Text | Print | Product List | Glossary On
Versions: 1 2 3 4 5 6 7 8 9 10 11 12 13 14 15 16 17 18 19 20 21 22 23
000
FTUS43 KTOP 242300
TAFTOP
TAF
KTOP 242335Z 2500/2524 19010KT P6SM VCSH SCT025 BKN090
     FM250600 21006KT P6SM BKN020 BKN050
     FM251300 18012KT P6SM VCSH SCT012 BKN050
     FM251800 18014G24KT P6SM BKN050=

USA.gov is the U.S. government's official web portal to all federal, state and local government web resources and services.